sensor_id;sensor_type;location;lat;lon;timestamp;P1;durP1;ratioP1;P2;durP2;ratioP2
51883;SDS011;37915;53.254;6.598;2022-10-04T00:01:27;16.33;;;5.32;;
51883;SDS011;37915;53.254;6.598;2022-10-04T00:04:08;10.63;;;4.88;;
51883;SDS011;37915;53.254;6.598;2022-10-04T00:06:42;11.23;;;5.13;;
51883;SDS011;37915;53.254;6.598;2022-10-04T00:09:16;16.23;;;5.07;;
51883;SDS011;37915;53.254;6.598;2022-10-04T00:11:47;11.77;;;5.22;;
51883;SDS011;37915;53.254;6.598;2022-10-04T00:14:18;14.65;;;5.57;;
51883;SDS011;37915;53.254;6.598;2022-10-04T00:16:44;15.15;;;5.03;;
51883;SDS011;37915;53.254;6.598;2022-10-04T00:24:27;18.52;;;6.07;;
51883;SDS011;37915;53.254;6.598;2022-10-04T00:29:48;12.00;;;5.50;;
51883;SDS011;37915;53.254;6.598;2022-10-04T00:32:36;10.52;;;4.57;;
51883;SDS011;37915;53.254;6.598;2022-10-04T00:37:54;10.88;;;4.97;;
51883;SDS011;37915;53.254;6.598;2022-10-04T00:41:00;11.00;;;4.60;;
51883;SDS011;37915;53.254;6.598;2022-10-04T00:46:12;12.30;;;4.63;;
51883;SDS011;37915;53.254;6.598;2022-10-04T00:51:47;16.23;;;5.25;;
51883;SDS011;37915;53.254;6.598;2022-10-04T00:54:21;10.57;;;4.25;;
51883;SDS011;37915;53.254;6.598;2022-10-04T00:57:00;12.40;;;4.80;;
51883;SDS011;37915;53.254;6.598;2022-10-04T00:59:42;11.43;;;4.40;;
51883;SDS011;37915;53.254;6.598;2022-10-04T01:04:40;16.50;;;5.32;;
51883;SDS011;37915;53.254;6.598;2022-10-04T01:07:34;12.75;;;5.00;;
51883;SDS011;37915;53.254;6.598;2022-10-04T01:10:12;12.27;;;4.78;;
51883;SDS011;37915;53.254;6.598;2022-10-04T01:12:51;16.27;;;4.93;;
51883;SDS011;37915;53.254;6.598;2022-10-04T01:18:14;15.95;;;5.18;;
51883;SDS011;37915;53.254;6.598;2022-10-04T01:20:53;15.90;;;5.57;;
51883;SDS011;37915;53.254;6.598;2022-10-04T01:25:59;19.20;;;5.78;;
51883;SDS011;37915;53.254;6.598;2022-10-04T01:28:26;14.68;;;5.07;;
51883;SDS011;37915;53.254;6.598;2022-10-04T01:30:53;15.18;;;5.45;;
51883;SDS011;37915;53.254;6.598;2022-10-04T01:33:19;14.30;;;5.18;;
51883;SDS011;37915;53.254;6.598;2022-10-04T01:35:46;14.52;;;5.53;;
51883;SDS011;37915;53.254;6.598;2022-10-04T01:38:12;16.98;;;5.75;;
51883;SDS011;37915;53.254;6.598;2022-10-04T01:40:41;13.07;;;5.53;;
51883;SDS011;37915;53.254;6.598;2022-10-04T01:43:13;18.67;;;5.70;;
51883;SDS011;37915;53.254;6.598;2022-10-04T01:45:49;14.20;;;5.30;;
51883;SDS011;37915;53.254;6.598;2022-10-04T01:48:21;16.20;;;5.43;;
51883;SDS011;37915;53.254;6.598;2022-10-04T01:50:50;15.02;;;5.55;;
51883;SDS011;37915;53.254;6.598;2022-10-04T01:53:26;12.63;;;5.55;;
51883;SDS011;37915;53.254;6.598;2022-10-04T01:56:07;14.68;;;5.82;;
51883;SDS011;37915;53.254;6.598;2022-10-04T01:58:44;12.10;;;4.88;;
51883;SDS011;37915;53.254;6.598;2022-10-04T02:03:54;16.35;;;5.93;;
51883;SDS011;37915;53.254;6.598;2022-10-04T02:06:25;15.32;;;6.00;;
51883;SDS011;37915;53.254;6.598;2022-10-04T02:08:53;15.18;;;6.53;;
51883;SDS011;37915;53.254;6.598;2022-10-04T02:11:22;17.65;;;6.25;;
51883;SDS011;37915;53.254;6.598;2022-10-04T02:13:49;19.00;;;6.82;;
51883;SDS011;37915;53.254;6.598;2022-10-04T02:16:17;15.45;;;6.00;;
51883;SDS011;37915;53.254;6.598;2022-10-04T02:18:45;18.70;;;6.18;;
51883;SDS011;37915;53.254;6.598;2022-10-04T02:21:11;12.52;;;6.28;;
51883;SDS011;37915;53.254;6.598;2022-10-04T02:23:39;16.05;;;6.30;;
51883;SDS011;37915;53.254;6.598;2022-10-04T02:26:07;13.57;;;5.22;;
51883;SDS011;37915;53.254;6.598;2022-10-04T02:28:34;11.52;;;6.07;;
51883;SDS011;37915;53.254;6.598;2022-10-04T02:31:01;13.80;;;6.32;;
51883;SDS011;37915;53.254;6.598;2022-10-04T02:33:48;12.43;;;5.47;;
51883;SDS011;37915;53.254;6.598;2022-10-04T02:36:16;16.40;;;6.63;;
51883;SDS011;37915;53.254;6.598;2022-10-04T02:38:50;13.13;;;5.47;;
51883;SDS011;37915;53.254;6.598;2022-10-04T02:49:28;17.10;;;6.07;;
51883;SDS011;37915;53.254;6.598;2022-10-04T02:52:09;14.52;;;5.00;;
51883;SDS011;37915;53.254;6.598;2022-10-04T02:57:31;12.85;;;5.97;;
51883;SDS011;37915;53.254;6.598;2022-10-04T03:02:33;11.75;;;5.45;;
51883;SDS011;37915;53.254;6.598;2022-10-04T03:05:02;17.50;;;7.20;;
51883;SDS011;37915;53.254;6.598;2022-10-04T03:07:31;10.18;;;5.93;;
51883;SDS011;37915;53.254;6.598;2022-10-04T03:09:59;11.95;;;5.68;;
51883;SDS011;37915;53.254;6.598;2022-10-04T03:12:26;15.27;;;6.03;;
51883;SDS011;37915;53.254;6.598;2022-10-04T03:14:52;14.23;;;6.30;;
51883;SDS011;37915;53.254;6.598;2022-10-04T03:17:18;15.07;;;6.22;;
51883;SDS011;37915;53.254;6.598;2022-10-04T03:19:46;13.63;;;6.47;;
51883;SDS011;37915;53.254;6.598;2022-10-04T03:22:14;16.80;;;6.72;;
51883;SDS011;37915;53.254;6.598;2022-10-04T03:24:44;14.00;;;6.28;;
51883;SDS011;37915;53.254;6.598;2022-10-04T03:27:35;15.35;;;6.15;;
51883;SDS011;37915;53.254;6.598;2022-10-04T03:30:00;17.92;;;6.85;;
51883;SDS011;37915;53.254;6.598;2022-10-04T03:32:26;14.88;;;6.20;;
51883;SDS011;37915;53.254;6.598;2022-10-04T03:34:58;13.82;;;6.78;;
51883;SDS011;37915;53.254;6.598;2022-10-04T03:37:28;15.85;;;6.15;;
51883;SDS011;37915;53.254;6.598;2022-10-04T03:39:56;11.07;;;6.38;;
51883;SDS011;37915;53.254;6.598;2022-10-04T03:42:23;13.32;;;6.07;;
51883;SDS011;37915;53.254;6.598;2022-10-04T03:44:56;14.27;;;5.38;;
51883;SDS011;37915;53.254;6.598;2022-10-04T03:47:29;12.55;;;6.93;;
51883;SDS011;37915;53.254;6.598;2022-10-04T03:50:00;15.30;;;6.60;;
51883;SDS011;37915;53.254;6.598;2022-10-04T03:52:32;20.27;;;7.85;;
51883;SDS011;37915;53.254;6.598;2022-10-04T03:55:02;18.02;;;7.53;;
51883;SDS011;37915;53.254;6.598;2022-10-04T03:57:31;13.88;;;6.53;;
51883;SDS011;37915;53.254;6.598;2022-10-04T03:59:58;15.95;;;7.30;;
51883;SDS011;37915;53.254;6.598;2022-10-04T04:08:29;13.80;;;7.53;;
51883;SDS011;37915;53.254;6.598;2022-10-04T04:10:58;14.60;;;7.20;;
51883;SDS011;37915;53.254;6.598;2022-10-04T04:13:39;16.80;;;8.43;;
51883;SDS011;37915;53.254;6.598;2022-10-04T04:16:18;16.75;;;7.28;;
51883;SDS011;37915;53.254;6.598;2022-10-04T04:18:47;15.85;;;6.80;;
51883;SDS011;37915;53.254;6.598;2022-10-04T04:21:16;17.48;;;6.70;;
51883;SDS011;37915;53.254;6.598;2022-10-04T04:23:48;14.02;;;7.15;;
51883;SDS011;37915;53.254;6.598;2022-10-04T04:26:37;10.98;;;6.38;;
51883;SDS011;37915;53.254;6.598;2022-10-04T04:29:10;19.27;;;7.68;;
51883;SDS011;37915;53.254;6.598;2022-10-04T04:31:44;19.88;;;7.82;;
51883;SDS011;37915;53.254;6.598;2022-10-04T04:34:16;16.02;;;7.68;;
51883;SDS011;37915;53.254;6.598;2022-10-04T04:36:49;16.08;;;7.30;;
51883;SDS011;37915;53.254;6.598;2022-10-04T04:42:05;15.25;;;6.82;;
51883;SDS011;37915;53.254;6.598;2022-10-04T04:44:38;16.30;;;6.95;;
51883;SDS011;37915;53.254;6.598;2022-10-04T04:47:35;13.57;;;7.88;;
51883;SDS011;37915;53.254;6.598;2022-10-04T04:50:05;19.48;;;7.78;;
51883;SDS011;37915;53.254;6.598;2022-10-04T04:55:40;16.95;;;7.85;;
51883;SDS011;37915;53.254;6.598;2022-10-04T04:58:11;12.80;;;6.93;;
51883;SDS011;37915;53.254;6.598;2022-10-04T05:00:45;15.93;;;7.88;;
51883;SDS011;37915;53.254;6.598;2022-10-04T05:03:18;16.77;;;7.38;;
51883;SDS011;37915;53.254;6.598;2022-10-04T05:05:45;15.75;;;7.80;;
51883;SDS011;37915;53.254;6.598;2022-10-04T05:10:48;14.27;;;6.97;;
51883;SDS011;37915;53.254;6.598;2022-10-04T05:16:12;19.20;;;8.48;;
51883;SDS011;37915;53.254;6.598;2022-10-04T05:18:47;15.85;;;7.30;;
51883;SDS011;37915;53.254;6.598;2022-10-04T05:21:26;14.20;;;7.32;;
51883;SDS011;37915;53.254;6.598;2022-10-04T05:23:57;12.90;;;7.38;;
51883;SDS011;37915;53.254;6.598;2022-10-04T05:26:33;17.85;;;7.72;;
51883;SDS011;37915;53.254;6.598;2022-10-04T05:29:00;23.48;;;8.80;;
51883;SDS011;37915;53.254;6.598;2022-10-04T05:34:20;20.98;;;8.43;;
51883;SDS011;37915;53.254;6.598;2022-10-04T05:39:27;15.55;;;8.65;;
51883;SDS011;37915;53.254;6.598;2022-10-04T05:42:15;14.48;;;8.90;;
51883;SDS011;37915;53.254;6.598;2022-10-04T05:44:56;17.05;;;8.10;;
51883;SDS011;37915;53.254;6.598;2022-10-04T05:47:24;16.23;;;9.05;;
51883;SDS011;37915;53.254;6.598;2022-10-04T05:49:56;12.95;;;7.60;;
51883;SDS011;37915;53.254;6.598;2022-10-04T06:06:15;16.45;;;9.77;;
51883;SDS011;37915;53.254;6.598;2022-10-04T06:11:29;22.42;;;10.52;;
51883;SDS011;37915;53.254;6.598;2022-10-04T06:23:00;15.75;;;9.20;;
51883;SDS011;37915;53.254;6.598;2022-10-04T06:25:35;20.45;;;9.02;;
51883;SDS011;37915;53.254;6.598;2022-10-04T06:28:22;16.58;;;8.25;;
51883;SDS011;37915;53.254;6.598;2022-10-04T06:33:46;18.48;;;9.63;;
51883;SDS011;37915;53.254;6.598;2022-10-04T06:36:54;17.75;;;9.32;;
51883;SDS011;37915;53.254;6.598;2022-10-04T06:40:29;11.85;;;7.07;;
51883;SDS011;37915;53.254;6.598;2022-10-04T06:48:21;13.87;;;8.77;;
51883;SDS011;37915;53.254;6.598;2022-10-04T07:01:33;16.25;;;9.85;;
51883;SDS011;37915;53.254;6.598;2022-10-04T07:06:40;18.77;;;9.98;;
51883;SDS011;37915;53.254;6.598;2022-10-04T07:09:23;12.15;;;7.57;;
51883;SDS011;37915;53.254;6.598;2022-10-04T07:11:56;17.40;;;9.98;;
51883;SDS011;37915;53.254;6.598;2022-10-04T07:14:36;14.38;;;9.05;;
51883;SDS011;37915;53.254;6.598;2022-10-04T07:17:10;20.67;;;9.95;;
51883;SDS011;37915;53.254;6.598;2022-10-04T07:25:14;18.30;;;8.73;;
51883;SDS011;37915;53.254;6.598;2022-10-04T07:27:59;18.17;;;8.48;;
51883;SDS011;37915;53.254;6.598;2022-10-04T07:33:17;17.52;;;9.30;;
51883;SDS011;37915;53.254;6.598;2022-10-04T07:35:49;14.70;;;8.77;;
51883;SDS011;37915;53.254;6.598;2022-10-04T07:38:25;14.45;;;9.35;;
51883;SDS011;37915;53.254;6.598;2022-10-04T07:43:47;17.85;;;9.45;;
51883;SDS011;37915;53.254;6.598;2022-10-04T07:46:18;16.85;;;8.85;;
51883;SDS011;37915;53.254;6.598;2022-10-04T07:49:10;15.07;;;9.32;;
51883;SDS011;37915;53.254;6.598;2022-10-04T07:52:09;13.95;;;8.55;;
51883;SDS011;37915;53.254;6.598;2022-10-04T08:05:46;16.25;;;8.38;;
51883;SDS011;37915;53.254;6.598;2022-10-04T08:11:40;18.00;;;8.23;;
51883;SDS011;37915;53.254;6.598;2022-10-04T08:14:23;13.98;;;8.00;;
51883;SDS011;37915;53.254;6.598;2022-10-04T08:25:13;14.88;;;8.02;;
51883;SDS011;37915;53.254;6.598;2022-10-04T08:31:15;14.20;;;8.43;;
51883;SDS011;37915;53.254;6.598;2022-10-04T09:01:57;13.80;;;8.43;;
51883;SDS011;37915;53.254;6.598;2022-10-04T09:08:06;12.77;;;8.15;;
51883;SDS011;37915;53.254;6.598;2022-10-04T09:13:28;12.50;;;6.65;;
51883;SDS011;37915;53.254;6.598;2022-10-04T09:16:04;14.10;;;7.15;;
51883;SDS011;37915;53.254;6.598;2022-10-04T09:22:02;12.50;;;6.32;;
51883;SDS011;37915;53.254;6.598;2022-10-04T09:24:09;11.10;;;6.40;;
51883;SDS011;37915;53.254;6.598;2022-10-04T09:26:46;11.25;;;6.03;;
51883;SDS011;37915;53.254;6.598;2022-10-04T09:37:20;10.18;;;5.80;;
51883;SDS011;37915;53.254;6.598;2022-10-04T09:43:05;9.63;;;5.38;;
51883;SDS011;37915;53.254;6.598;2022-10-04T09:57:07;9.75;;;4.53;;
51883;SDS011;37915;53.254;6.598;2022-10-04T10:00:00;10.68;;;4.30;;
51883;SDS011;37915;53.254;6.598;2022-10-04T10:16:40;7.40;;;4.03;;
51883;SDS011;37915;53.254;6.598;2022-10-04T10:19:36;8.73;;;3.55;;
51883;SDS011;37915;53.254;6.598;2022-10-04T10:28:11;9.65;;;4.97;;
51883;SDS011;37915;53.254;6.598;2022-10-04T10:39:32;8.05;;;4.10;;
51883;SDS011;37915;53.254;6.598;2022-10-04T11:13:20;7.40;;;3.40;;
51883;SDS011;37915;53.254;6.598;2022-10-04T11:19:23;6.75;;;3.47;;
51883;SDS011;37915;53.254;6.598;2022-10-04T11:39:56;9.88;;;3.58;;
51883;SDS011;37915;53.254;6.598;2022-10-04T11:50:31;11.93;;;4.32;;
51883;SDS011;37915;53.254;6.598;2022-10-04T11:53:08;8.95;;;3.05;;
51883;SDS011;37915;53.254;6.598;2022-10-04T12:07:59;5.10;;;2.97;;
51883;SDS011;37915;53.254;6.598;2022-10-04T12:10:47;5.28;;;3.00;;
51883;SDS011;37915;53.254;6.598;2022-10-04T12:16:45;5.88;;;3.13;;
51883;SDS011;37915;53.254;6.598;2022-10-04T12:19:31;8.98;;;3.25;;
51883;SDS011;37915;53.254;6.598;2022-10-04T12:27:56;9.98;;;3.53;;
51883;SDS011;37915;53.254;6.598;2022-10-04T12:33:15;4.85;;;2.83;;
51883;SDS011;37915;53.254;6.598;2022-10-04T12:51:24;9.90;;;3.90;;
51883;SDS011;37915;53.254;6.598;2022-10-04T12:53:58;7.00;;;3.33;;
51883;SDS011;37915;53.254;6.598;2022-10-04T12:59:48;9.02;;;3.47;;
51883;SDS011;37915;53.254;6.598;2022-10-04T13:05:13;8.73;;;3.80;;
51883;SDS011;37915;53.254;6.598;2022-10-04T13:10:21;8.32;;;3.75;;
51883;SDS011;37915;53.254;6.598;2022-10-04T13:16:01;10.27;;;4.32;;
51883;SDS011;37915;53.254;6.598;2022-10-04T13:26:54;6.55;;;3.63;;
51883;SDS011;37915;53.254;6.598;2022-10-04T13:29:42;11.35;;;4.10;;
51883;SDS011;37915;53.254;6.598;2022-10-04T13:48:06;8.85;;;4.53;;
51883;SDS011;37915;53.254;6.598;2022-10-04T13:59:27;7.25;;;4.55;;
51883;SDS011;37915;53.254;6.598;2022-10-04T14:21:35;6.38;;;3.88;;
51883;SDS011;37915;53.254;6.598;2022-10-04T14:34:44;6.30;;;2.90;;
51883;SDS011;37915;53.254;6.598;2022-10-04T14:48:37;7.00;;;2.95;;
51883;SDS011;37915;53.254;6.598;2022-10-04T14:56:49;7.43;;;3.58;;
51883;SDS011;37915;53.254;6.598;2022-10-04T14:59:30;6.25;;;3.13;;
51883;SDS011;37915;53.254;6.598;2022-10-04T15:02:09;7.22;;;3.00;;
51883;SDS011;37915;53.254;6.598;2022-10-04T15:05:04;5.05;;;2.75;;
51883;SDS011;37915;53.254;6.598;2022-10-04T15:08:11;5.53;;;3.00;;
51883;SDS011;37915;53.254;6.598;2022-10-04T15:10:59;6.82;;;2.88;;
51883;SDS011;37915;53.254;6.598;2022-10-04T15:13:40;6.00;;;2.70;;
51883;SDS011;37915;53.254;6.598;2022-10-04T15:21:49;5.85;;;2.65;;
51883;SDS011;37915;53.254;6.598;2022-10-04T15:24:24;8.13;;;3.15;;
51883;SDS011;37915;53.254;6.598;2022-10-04T15:29:38;6.60;;;2.83;;
51883;SDS011;37915;53.254;6.598;2022-10-04T15:38:23;7.93;;;2.22;;
51883;SDS011;37915;53.254;6.598;2022-10-04T15:43:40;8.57;;;2.95;;
51883;SDS011;37915;53.254;6.598;2022-10-04T15:48:51;5.78;;;2.85;;
51883;SDS011;37915;53.254;6.598;2022-10-04T16:05:41;5.72;;;2.50;;
51883;SDS011;37915;53.254;6.598;2022-10-04T16:11:20;10.02;;;3.33;;
51883;SDS011;37915;53.254;6.598;2022-10-04T16:24:47;7.57;;;2.58;;
51883;SDS011;37915;53.254;6.598;2022-10-04T16:27:41;6.13;;;2.70;;
51883;SDS011;37915;53.254;6.598;2022-10-04T16:30:25;6.97;;;2.60;;
51883;SDS011;37915;53.254;6.598;2022-10-04T16:39:00;6.55;;;2.33;;
51883;SDS011;37915;53.254;6.598;2022-10-04T16:41:52;5.22;;;2.35;;
51883;SDS011;37915;53.254;6.598;2022-10-04T16:44:27;6.95;;;2.80;;
51883;SDS011;37915;53.254;6.598;2022-10-04T16:47:21;6.30;;;2.70;;
51883;SDS011;37915;53.254;6.598;2022-10-04T16:49:55;4.95;;;2.70;;
51883;SDS011;37915;53.254;6.598;2022-10-04T16:52:35;6.65;;;2.45;;
51883;SDS011;37915;53.254;6.598;2022-10-04T16:59:09;6.07;;;2.65;;
51883;SDS011;37915;53.254;6.598;2022-10-04T17:06:55;7.28;;;2.97;;
51883;SDS011;37915;53.254;6.598;2022-10-04T17:14:45;7.07;;;2.75;;
51883;SDS011;37915;53.254;6.598;2022-10-04T17:17:43;7.53;;;2.85;;
51883;SDS011;37915;53.254;6.598;2022-10-04T17:25:50;6.20;;;2.85;;
51883;SDS011;37915;53.254;6.598;2022-10-04T17:31:18;8.23;;;3.50;;
51883;SDS011;37915;53.254;6.598;2022-10-04T17:34:04;7.68;;;4.10;;
51883;SDS011;37915;53.254;6.598;2022-10-04T17:36:42;10.90;;;4.28;;
51883;SDS011;37915;53.254;6.598;2022-10-04T17:39:34;7.72;;;3.33;;
51883;SDS011;37915;53.254;6.598;2022-10-04T17:42:25;7.20;;;3.13;;
51883;SDS011;37915;53.254;6.598;2022-10-04T17:45:13;6.43;;;3.40;;
51883;SDS011;37915;53.254;6.598;2022-10-04T17:53:46;7.80;;;4.00;;
51883;SDS011;37915;53.254;6.598;2022-10-04T17:56:42;7.47;;;3.42;;
51883;SDS011;37915;53.254;6.598;2022-10-04T17:59:44;9.95;;;4.10;;
51883;SDS011;37915;53.254;6.598;2022-10-04T18:02:22;6.47;;;3.15;;
51883;SDS011;37915;53.254;6.598;2022-10-04T18:04:58;6.35;;;3.30;;
51883;SDS011;37915;53.254;6.598;2022-10-04T18:07:43;9.35;;;3.53;;
51883;SDS011;37915;53.254;6.598;2022-10-04T18:13:31;6.68;;;3.55;;
51883;SDS011;37915;53.254;6.598;2022-10-04T18:16:30;10.45;;;3.70;;
51883;SDS011;37915;53.254;6.598;2022-10-04T18:21:55;7.30;;;3.45;;
51883;SDS011;37915;53.254;6.598;2022-10-04T18:24:46;6.25;;;3.80;;
51883;SDS011;37915;53.254;6.598;2022-10-04T18:27:26;5.90;;;3.78;;
51883;SDS011;37915;53.254;6.598;2022-10-04T18:32:52;9.27;;;4.03;;
51883;SDS011;37915;53.254;6.598;2022-10-04T18:35:28;9.70;;;4.10;;
51883;SDS011;37915;53.254;6.598;2022-10-04T18:37:57;10.05;;;4.05;;
51883;SDS011;37915;53.254;6.598;2022-10-04T18:40:55;9.15;;;4.40;;
51883;SDS011;37915;53.254;6.598;2022-10-04T18:43:31;8.05;;;4.45;;
51883;SDS011;37915;53.254;6.598;2022-10-04T18:46:14;7.28;;;3.72;;
51883;SDS011;37915;53.254;6.598;2022-10-04T18:54:36;7.38;;;3.70;;
51883;SDS011;37915;53.254;6.598;2022-10-04T19:00:20;10.48;;;4.85;;
51883;SDS011;37915;53.254;6.598;2022-10-04T19:03:17;9.02;;;4.47;;
51883;SDS011;37915;53.254;6.598;2022-10-04T19:05:47;9.90;;;4.55;;
51883;SDS011;37915;53.254;6.598;2022-10-04T19:16:35;11.65;;;4.30;;
51883;SDS011;37915;53.254;6.598;2022-10-04T19:19:17;9.18;;;5.22;;
51883;SDS011;37915;53.254;6.598;2022-10-04T19:27:48;9.65;;;4.68;;
51883;SDS011;37915;53.254;6.598;2022-10-04T19:30:25;8.02;;;4.35;;
51883;SDS011;37915;53.254;6.598;2022-10-04T19:33:17;11.68;;;4.75;;
51883;SDS011;37915;53.254;6.598;2022-10-04T19:41:40;11.32;;;4.75;;
51883;SDS011;37915;53.254;6.598;2022-10-04T19:50:20;9.05;;;5.25;;
51883;SDS011;37915;53.254;6.598;2022-10-04T19:53:02;10.77;;;5.15;;
51883;SDS011;37915;53.254;6.598;2022-10-04T19:55:55;9.32;;;4.47;;
51883;SDS011;37915;53.254;6.598;2022-10-04T20:01:18;12.10;;;5.28;;
51883;SDS011;37915;53.254;6.598;2022-10-04T20:03:46;8.07;;;4.95;;
51883;SDS011;37915;53.254;6.598;2022-10-04T20:06:35;22.45;;;6.65;;
51883;SDS011;37915;53.254;6.598;2022-10-04T20:12:07;12.25;;;5.47;;
51883;SDS011;37915;53.254;6.598;2022-10-04T20:17:41;11.27;;;5.05;;
51883;SDS011;37915;53.254;6.598;2022-10-04T20:20:07;8.55;;;5.60;;
51883;SDS011;37915;53.254;6.598;2022-10-04T20:30:59;9.65;;;6.05;;
51883;SDS011;37915;53.254;6.598;2022-10-04T20:38:45;8.48;;;5.50;;
51883;SDS011;37915;53.254;6.598;2022-10-04T20:43:54;10.93;;;6.30;;
51883;SDS011;37915;53.254;6.598;2022-10-04T20:46:36;8.65;;;5.20;;
51883;SDS011;37915;53.254;6.598;2022-10-04T20:49:03;9.18;;;4.95;;
51883;SDS011;37915;53.254;6.598;2022-10-04T20:51:37;8.02;;;5.13;;
51883;SDS011;37915;53.254;6.598;2022-10-04T20:54:03;9.32;;;4.80;;
51883;SDS011;37915;53.254;6.598;2022-10-04T20:56:32;13.43;;;5.70;;
51883;SDS011;37915;53.254;6.598;2022-10-04T20:59:03;10.25;;;5.93;;
51883;SDS011;37915;53.254;6.598;2022-10-04T21:01:33;17.83;;;5.72;;
51883;SDS011;37915;53.254;6.598;2022-10-04T21:04:11;10.75;;;6.00;;
51883;SDS011;37915;53.254;6.598;2022-10-04T21:09:17;8.13;;;5.78;;
51883;SDS011;37915;53.254;6.598;2022-10-04T21:11:43;10.10;;;5.75;;
51883;SDS011;37915;53.254;6.598;2022-10-04T21:14:29;11.38;;;5.90;;
51883;SDS011;37915;53.254;6.598;2022-10-04T21:16:56;10.93;;;5.60;;
51883;SDS011;37915;53.254;6.598;2022-10-04T21:19:28;12.90;;;5.90;;
51883;SDS011;37915;53.254;6.598;2022-10-04T21:24:32;8.23;;;5.25;;
51883;SDS011;37915;53.254;6.598;2022-10-04T21:27:06;9.05;;;5.07;;
51883;SDS011;37915;53.254;6.598;2022-10-04T21:29:35;9.63;;;5.57;;
51883;SDS011;37915;53.254;6.598;2022-10-04T21:32:03;10.05;;;5.82;;
51883;SDS011;37915;53.254;6.598;2022-10-04T21:34:30;9.07;;;5.00;;
51883;SDS011;37915;53.254;6.598;2022-10-04T21:36:56;9.05;;;5.95;;
51883;SDS011;37915;53.254;6.598;2022-10-04T21:39:22;9.68;;;5.80;;
51883;SDS011;37915;53.254;6.598;2022-10-04T21:41:48;9.40;;;5.40;;
51883;SDS011;37915;53.254;6.598;2022-10-04T21:44:14;9.48;;;5.75;;
51883;SDS011;37915;53.254;6.598;2022-10-04T21:46:40;7.50;;;4.60;;
51883;SDS011;37915;53.254;6.598;2022-10-04T21:49:05;11.63;;;6.47;;
51883;SDS011;37915;53.254;6.598;2022-10-04T21:51:31;8.52;;;5.70;;
51883;SDS011;37915;53.254;6.598;2022-10-04T21:54:03;10.95;;;6.18;;
51883;SDS011;37915;53.254;6.598;2022-10-04T21:56:29;9.27;;;5.55;;
51883;SDS011;37915;53.254;6.598;2022-10-04T21:58:55;11.02;;;5.70;;
51883;SDS011;37915;53.254;6.598;2022-10-04T22:01:21;11.20;;;6.03;;
51883;SDS011;37915;53.254;6.598;2022-10-04T22:03:46;10.10;;;5.90;;
51883;SDS011;37915;53.254;6.598;2022-10-04T22:06:12;11.57;;;5.78;;
51883;SDS011;37915;53.254;6.598;2022-10-04T22:08:38;11.07;;;5.65;;
51883;SDS011;37915;53.254;6.598;2022-10-04T22:11:03;13.40;;;6.18;;
51883;SDS011;37915;53.254;6.598;2022-10-04T22:13:29;10.32;;;5.85;;
51883;SDS011;37915;53.254;6.598;2022-10-04T22:15:55;10.50;;;5.38;;
51883;SDS011;37915;53.254;6.598;2022-10-04T22:18:21;11.10;;;5.38;;
51883;SDS011;37915;53.254;6.598;2022-10-04T22:20:47;8.82;;;5.43;;
51883;SDS011;37915;53.254;6.598;2022-10-04T22:23:20;9.98;;;6.05;;
51883;SDS011;37915;53.254;6.598;2022-10-04T22:25:52;6.93;;;4.93;;
51883;SDS011;37915;53.254;6.598;2022-10-04T22:28:28;10.43;;;6.38;;
51883;SDS011;37915;53.254;6.598;2022-10-04T22:30:55;12.57;;;6.50;;
51883;SDS011;37915;53.254;6.598;2022-10-04T22:36:34;11.88;;;5.82;;
51883;SDS011;37915;53.254;6.598;2022-10-04T22:41:27;13.73;;;6.28;;
51883;SDS011;37915;53.254;6.598;2022-10-04T22:43:55;11.80;;;5.50;;
51883;SDS011;37915;53.254;6.598;2022-10-04T22:46:24;11.20;;;5.45;;
51883;SDS011;37915;53.254;6.598;2022-10-04T22:48:57;9.27;;;5.95;;
51883;SDS011;37915;53.254;6.598;2022-10-04T22:51:25;11.27;;;5.70;;
51883;SDS011;37915;53.254;6.598;2022-10-04T22:53:53;11.23;;;6.47;;
51883;SDS011;37915;53.254;6.598;2022-10-04T22:56:18;11.70;;;6.55;;
51883;SDS011;37915;53.254;6.598;2022-10-04T22:58:44;9.90;;;5.60;;
51883;SDS011;37915;53.254;6.598;2022-10-04T23:01:14;13.10;;;6.70;;
51883;SDS011;37915;53.254;6.598;2022-10-04T23:03:45;9.25;;;5.88;;
51883;SDS011;37915;53.254;6.598;2022-10-04T23:06:12;9.65;;;6.03;;
51883;SDS011;37915;53.254;6.598;2022-10-04T23:08:39;11.98;;;6.35;;
51883;SDS011;37915;53.254;6.598;2022-10-04T23:11:06;10.90;;;5.70;;
51883;SDS011;37915;53.254;6.598;2022-10-04T23:13:32;9.70;;;6.18;;
51883;SDS011;37915;53.254;6.598;2022-10-04T23:16:09;8.93;;;5.53;;
51883;SDS011;37915;53.254;6.598;2022-10-04T23:18:40;11.23;;;6.10;;
51883;SDS011;37915;53.254;6.598;2022-10-04T23:21:12;11.27;;;6.20;;
51883;SDS011;37915;53.254;6.598;2022-10-04T23:23:46;9.40;;;5.50;;
51883;SDS011;37915;53.254;6.598;2022-10-04T23:26:13;11.85;;;6.25;;
51883;SDS011;37915;53.254;6.598;2022-10-04T23:28:49;11.80;;;6.30;;
51883;SDS011;37915;53.254;6.598;2022-10-04T23:31:21;10.98;;;5.80;;
51883;SDS011;37915;53.254;6.598;2022-10-04T23:33:49;11.30;;;5.70;;
51883;SDS011;37915;53.254;6.598;2022-10-04T23:36:15;8.82;;;6.18;;
51883;SDS011;37915;53.254;6.598;2022-10-04T23:38:45;12.77;;;6.68;;
51883;SDS011;37915;53.254;6.598;2022-10-04T23:41:13;11.32;;;6.30;;
51883;SDS011;37915;53.254;6.598;2022-10-04T23:43:40;11.30;;;5.72;;
51883;SDS011;37915;53.254;6.598;2022-10-04T23:46:13;11.90;;;7.18;;
51883;SDS011;37915;53.254;6.598;2022-10-04T23:48:42;9.65;;;6.13;;
51883;SDS011;37915;53.254;6.598;2022-10-04T23:51:12;11.65;;;6.10;;
51883;SDS011;37915;53.254;6.598;2022-10-04T23:53:41;11.38;;;6.40;;
51883;SDS011;37915;53.254;6.598;2022-10-04T23:56:18;12.00;;;6.70;;
51883;SDS011;37915;53.254;6.598;2022-10-04T23:58:49;12.73;;;5.97;;
